createdAt,value
2023-04-02T00:02:22.677Z,77.60
2023-04-02T00:06:30.553Z,77.50
2023-04-02T00:10:29.974Z,77.40
2023-04-02T00:14:33.459Z,77.40
2023-04-02T00:18:22.290Z,77.60
2023-04-02T00:22:09.454Z,77.70
2023-04-02T00:25:51.467Z,77.80
2023-04-02T00:29:33.369Z,77.80
2023-04-02T00:33:21.394Z,77.90
2023-04-02T00:37:04.387Z,78.00
2023-04-02T00:40:47.153Z,77.90
2023-04-02T00:44:33.042Z,77.90
2023-04-02T00:48:31.817Z,77.90
2023-04-02T00:52:17.071Z,78.00
2023-04-02T00:55:59.737Z,78.00
2023-04-02T01:00:12.635Z,78.00
2023-04-02T01:03:59.939Z,78.10
2023-04-02T01:07:59.951Z,78.10
2023-04-02T01:12:13.079Z,78.30
2023-04-02T01:16:29.480Z,78.40
2023-04-02T01:20:23.305Z,78.40
2023-04-02T01:24:11.771Z,78.30
2023-04-02T01:28:01.395Z,78.40
2023-04-02T01:31:45.823Z,78.50
2023-04-02T01:35:34.570Z,78.50
2023-04-02T01:39:37.389Z,78.50
2023-04-02T01:43:56.018Z,78.60
2023-04-02T01:47:38.922Z,78.70
2023-04-02T01:51:34.024Z,78.60
2023-04-02T01:55:21.224Z,78.60
2023-04-02T01:59:05.967Z,78.70
2023-04-02T02:02:50.525Z,78.70
2023-04-02T02:06:32.627Z,78.70
2023-04-02T02:10:25.881Z,78.70
2023-04-02T02:14:18.050Z,78.80
2023-04-02T02:18:04.311Z,78.80
2023-04-02T02:21:50.699Z,78.70
2023-04-02T02:25:34.797Z,78.70
2023-04-02T02:29:20.170Z,78.80
2023-04-02T02:33:21.852Z,78.80
2023-04-02T02:37:17.732Z,78.80
2023-04-02T02:41:26.599Z,78.90
2023-04-02T02:45:16.101Z,78.90
2023-04-02T02:49:00.094Z,79.00
2023-04-02T02:52:47.343Z,79.10
2023-04-02T02:56:33.109Z,79.30
2023-04-02T03:00:18.039Z,79.40
2023-04-02T03:04:00.695Z,79.40
2023-04-02T03:07:42.730Z,79.40
2023-04-02T03:11:37.475Z,79.40
2023-04-02T03:15:19.806Z,79.50
2023-04-02T03:19:28.719Z,79.50
2023-04-02T03:23:25.715Z,79.50
2023-04-02T03:27:07.638Z,79.40
2023-04-02T03:31:10.325Z,79.40
2023-04-02T03:34:59.708Z,79.50
2023-04-02T03:39:09.096Z,79.40
2023-04-02T03:43:06.601Z,79.50
2023-04-02T03:46:57.605Z,79.50
2023-04-02T03:50:51.248Z,79.40
2023-04-02T03:54:33.544Z,79.50
2023-04-02T03:58:24.048Z,79.60
2023-04-02T04:02:35.175Z,79.60
2023-04-02T04:06:29.357Z,79.70
2023-04-02T04:10:19.929Z,79.60
2023-04-02T04:14:26.212Z,79.50
2023-04-02T04:18:34.980Z,79.50
2023-04-02T04:22:19.014Z,79.60
2023-04-02T04:26:09.905Z,79.60
2023-04-02T04:30:17.109Z,79.70
2023-04-02T04:34:05.266Z,79.70
2023-04-02T04:37:53.689Z,79.70
2023-04-02T04:41:38.397Z,79.60
2023-04-02T04:45:35.608Z,79.80
2023-04-02T04:49:28.499Z,79.80
2023-04-02T04:53:17.608Z,79.80
2023-04-02T04:57:03.886Z,79.80
2023-04-02T05:00:56.363Z,79.80
2023-04-02T05:04:41.720Z,79.90
2023-04-02T05:08:30.599Z,79.90
2023-04-02T05:12:31.271Z,79.90
2023-04-02T05:16:24.324Z,79.90
2023-04-02T05:20:23.803Z,79.90
2023-04-02T05:24:27.867Z,79.90
2023-04-02T05:28:42.062Z,80.00
2023-04-02T05:32:31.393Z,80.00
2023-04-02T05:36:20.941Z,79.90
2023-04-02T05:40:34.707Z,80.00
2023-04-02T05:44:38.517Z,80.00
2023-04-02T05:48:28.158Z,80.00
2023-04-02T05:52:21.252Z,79.90
2023-04-02T05:56:42.029Z,80.00
2023-04-02T06:00:50.176Z,80.10
2023-04-02T06:04:58.319Z,80.10
2023-04-02T06:08:47.683Z,80.10
2023-04-02T06:12:47.591Z,80.10
2023-04-02T06:16:32.003Z,80.20
2023-04-02T06:20:18.173Z,80.20
2023-04-02T06:24:05.567Z,80.10
2023-04-02T06:27:49.305Z,80.10
2023-04-02T06:31:39.792Z,80.10
2023-04-02T06:35:21.613Z,80.10
2023-04-02T06:39:11.424Z,80.10
2023-04-02T06:42:59.687Z,80.10
2023-04-02T06:46:51.798Z,80.00
2023-04-02T06:50:54.659Z,80.00
2023-04-02T06:54:36.735Z,80.10
2023-04-02T06:58:19.883Z,80.10
2023-04-02T07:02:06.764Z,80.20
2023-04-02T07:05:49.044Z,80.20
2023-04-02T07:09:31.030Z,80.20
2023-04-02T07:13:18.829Z,80.20
2023-04-02T07:17:00.923Z,80.10
2023-04-02T07:20:43.099Z,80.20
2023-04-02T07:24:25.086Z,80.50
2023-04-02T07:28:07.146Z,81.10
2023-04-02T07:31:49.262Z,81.10
2023-04-02T07:35:31.617Z,80.80
2023-04-02T07:39:13.536Z,80.40
2023-04-02T07:42:55.394Z,79.90
2023-04-02T07:46:37.395Z,79.50
2023-04-02T07:50:19.957Z,79.10
2023-04-02T07:54:02.989Z,79.00
2023-04-02T07:57:56.351Z,78.90
2023-04-02T08:01:38.343Z,78.40
2023-04-02T08:05:20.475Z,78.80
2023-04-02T08:09:03.162Z,78.60
2023-04-02T08:12:45.462Z,78.30
2023-04-02T08:16:27.926Z,78.30
2023-04-02T08:20:19.826Z,78.10
2023-04-02T08:24:02.064Z,78.00
2023-04-02T08:27:47.204Z,78.40
2023-04-02T08:31:30.501Z,78.90
2023-04-02T08:35:16.338Z,79.90
2023-04-02T08:38:58.526Z,79.30
2023-04-02T08:43:04.458Z,78.50
2023-04-02T08:47:03.834Z,77.50
2023-04-02T08:50:45.967Z,77.50
2023-04-02T08:54:43.760Z,77.90
2023-04-02T08:58:34.371Z,77.60
2023-04-02T09:02:19.288Z,78.50
2023-04-02T09:06:03.916Z,78.50
2023-04-02T09:09:48.871Z,78.50
2023-04-02T09:13:33.255Z,78.40
2023-04-02T09:17:19.858Z,78.20
2023-04-02T09:21:13.758Z,78.30
2023-04-02T09:25:00.655Z,78.60
2023-04-02T09:28:42.663Z,77.70
2023-04-02T09:32:53.032Z,78.20
2023-04-02T09:36:37.527Z,77.80
2023-04-02T09:40:32.853Z,78.30
2023-04-02T09:44:31.137Z,77.50
2023-04-02T09:48:24.002Z,77.10
2023-04-02T09:52:20.605Z,77.70
2023-04-02T09:56:21.917Z,78.40
2023-04-02T10:00:32.263Z,78.00
2023-04-02T10:04:45.292Z,76.20
2023-04-02T10:08:28.245Z,75.20
2023-04-02T10:12:14.573Z,75.50
2023-04-02T10:16:20.707Z,75.00
2023-04-02T10:20:36.320Z,75.60
2023-04-02T10:24:27.598Z,74.20
2023-04-02T10:28:24.311Z,75.70
2023-04-02T10:32:16.214Z,76.10
2023-04-02T10:36:21.368Z,75.70
2023-04-02T10:40:14.372Z,76.10
2023-04-02T10:44:09.163Z,75.60
2023-04-02T10:48:19.100Z,76.30
2023-04-02T10:52:24.212Z,74.70
2023-04-02T10:56:11.566Z,75.70
2023-04-02T11:00:21.221Z,75.00
2023-04-02T11:04:14.401Z,74.50
2023-04-02T11:08:07.212Z,74.40
2023-04-02T11:11:55.903Z,74.70
2023-04-02T11:15:38.850Z,74.20
2023-04-02T11:19:24.265Z,73.60
2023-04-02T11:23:13.904Z,73.00
2023-04-02T11:27:10.316Z,72.30
2023-04-02T11:30:52.370Z,71.30
2023-04-02T11:35:02.942Z,71.40
2023-04-02T11:38:49.381Z,70.30
2023-04-02T11:42:37.077Z,71.10
2023-04-02T11:46:18.980Z,70.20
2023-04-02T11:50:01.891Z,70.80
2023-04-02T11:53:44.573Z,72.50
2023-04-02T11:57:41.054Z,72.60
2023-04-02T12:01:34.643Z,70.70
2023-04-02T12:05:21.135Z,70.20
2023-04-02T12:09:23.352Z,69.30
2023-04-02T12:13:05.460Z,68.40
2023-04-02T12:16:48.095Z,67.00
2023-04-02T12:20:31.455Z,65.90
2023-04-02T12:24:22.558Z,65.50
2023-04-02T12:28:25.455Z,66.50
2023-04-02T12:32:22.170Z,66.10
2023-04-02T12:36:11.875Z,66.90
2023-04-02T12:39:59.492Z,68.50
2023-04-02T12:43:41.593Z,67.10
2023-04-02T12:47:24.037Z,66.80
2023-04-02T12:51:06.360Z,68.00
2023-04-02T12:54:59.740Z,67.80
2023-04-02T12:58:42.937Z,66.60
2023-04-02T13:02:30.303Z,65.90
2023-04-02T13:06:24.127Z,65.50
2023-04-02T13:10:23.352Z,64.90
2023-04-02T13:14:16.766Z,64.20
2023-04-02T13:18:12.777Z,65.60
2023-04-02T13:21:56.551Z,65.40
2023-04-02T13:25:38.554Z,66.20
2023-04-02T13:29:24.905Z,66.90
2023-04-02T13:33:06.845Z,67.00
2023-04-02T13:36:49.088Z,67.10
2023-04-02T13:40:31.243Z,67.20
2023-04-02T13:44:29.056Z,66.30
2023-04-02T13:48:15.459Z,64.10
2023-04-02T13:52:05.619Z,64.50
2023-04-02T13:55:48.198Z,65.10
2023-04-02T13:59:30.541Z,65.10
2023-04-02T14:03:22.141Z,65.70
2023-04-02T14:07:25.913Z,65.70
2023-04-02T14:11:19.737Z,65.50
2023-04-02T14:15:27.645Z,65.80
2023-04-02T14:19:38.029Z,65.10
2023-04-02T14:23:56.097Z,65.60
2023-04-02T14:27:45.828Z,64.90
2023-04-02T14:31:37.433Z,65.30
2023-04-02T14:35:33.975Z,64.40
2023-04-02T14:39:40.515Z,64.30
2023-04-02T14:43:36.993Z,64.20
2023-04-02T14:47:29.577Z,64.40
2023-04-02T14:51:33.277Z,63.80
2023-04-02T14:55:29.433Z,63.40
2023-04-02T14:59:27.594Z,64.60
2023-04-02T15:03:22.097Z,64.50
2023-04-02T15:07:14.294Z,65.40
2023-04-02T15:11:35.220Z,66.40
2023-04-02T15:15:39.898Z,66.40
2023-04-02T15:19:22.995Z,66.00
2023-04-02T15:23:21.138Z,66.20
2023-04-02T15:27:05.374Z,65.40
2023-04-02T15:30:59.785Z,65.90
2023-04-02T15:34:50.861Z,65.20
2023-04-02T15:38:42.751Z,64.40
2023-04-02T15:42:33.087Z,64.60
2023-04-02T15:46:42.719Z,64.80
2023-04-02T15:50:53.387Z,65.00
2023-04-02T15:54:36.068Z,63.70
2023-04-02T15:58:35.658Z,66.10
2023-04-02T16:02:39.478Z,66.10
2023-04-02T16:06:40.743Z,64.00
2023-04-02T16:10:40.196Z,64.30
2023-04-02T16:14:26.666Z,66.10
2023-04-02T16:18:20.663Z,64.50
2023-04-02T16:22:13.623Z,64.40
2023-04-02T16:26:26.712Z,64.00
2023-04-02T16:30:53.457Z,64.10
2023-04-02T16:34:44.945Z,64.10
2023-04-02T16:38:38.893Z,65.60
2023-04-02T16:42:49.801Z,65.40
2023-04-02T16:46:53.397Z,63.50
2023-04-02T16:50:47.175Z,64.90
2023-04-02T16:54:46.989Z,65.10
2023-04-02T16:58:48.449Z,64.40
2023-04-02T17:03:08.141Z,64.10
2023-04-02T17:07:06.077Z,63.70
2023-04-02T17:11:07.944Z,64.00
2023-04-02T17:15:00.907Z,63.90
2023-04-02T17:18:46.084Z,65.20
2023-04-02T17:22:31.537Z,66.00
2023-04-02T17:26:15.062Z,66.40
2023-04-02T17:30:17.681Z,66.40
2023-04-02T17:34:00.656Z,65.50
2023-04-02T17:38:04.621Z,66.30
2023-04-02T17:42:16.939Z,64.70
2023-04-02T17:46:16.811Z,64.90
2023-04-02T17:50:29.538Z,64.90
2023-04-02T17:54:30.936Z,64.40
2023-04-02T17:58:18.412Z,64.80
2023-04-02T18:02:38.807Z,65.00
2023-04-02T18:06:32.861Z,64.30
2023-04-02T18:10:23.414Z,65.30
2023-04-02T18:14:27.936Z,65.20
2023-04-02T18:18:19.479Z,65.30
2023-04-02T18:22:27.620Z,65.50
2023-04-02T18:26:27.875Z,65.40
2023-04-02T18:30:33.796Z,65.90
2023-04-02T18:34:26.982Z,66.10
2023-04-02T18:38:15.000Z,66.30
2023-04-02T18:42:02.303Z,66.60
2023-04-02T18:46:13.465Z,66.90
2023-04-02T18:50:16.758Z,67.20
2023-04-02T18:54:32.320Z,67.40
2023-04-02T18:58:20.548Z,67.50
2023-04-02T19:02:41.805Z,67.60
2023-04-02T19:06:36.144Z,67.90
2023-04-02T19:10:34.417Z,68.00
2023-04-02T19:14:18.733Z,68.40
2023-04-02T19:18:20.509Z,68.40
2023-04-02T19:22:21.904Z,68.70
2023-04-02T19:26:12.915Z,68.60
2023-04-02T19:30:10.090Z,68.50
2023-04-02T19:34:19.861Z,68.30
2023-04-02T19:38:01.656Z,68.20
2023-04-02T19:41:54.286Z,68.20
2023-04-02T19:45:43.227Z,68.10
2023-04-02T19:49:25.253Z,68.10
2023-04-02T19:53:07.320Z,68.10
2023-04-02T19:56:49.516Z,68.10
2023-04-02T20:00:31.634Z,68.10
2023-04-02T20:04:14.605Z,68.20
2023-04-02T20:07:56.783Z,68.10
2023-04-02T20:11:39.188Z,68.20
2023-04-02T20:15:21.193Z,68.30
2023-04-02T20:19:03.478Z,68.50
2023-04-02T20:22:45.509Z,68.60
2023-04-02T20:26:27.762Z,68.80
2023-04-02T20:30:10.023Z,68.90
2023-04-02T20:33:56.691Z,69.00
2023-04-02T20:37:41.015Z,69.10
2023-04-02T20:41:23.407Z,69.30
2023-04-02T20:45:06.277Z,69.40
2023-04-02T20:48:48.468Z,69.50
2023-04-02T20:52:32.560Z,69.60
2023-04-02T20:56:16.977Z,69.80
2023-04-02T20:59:59.112Z,69.90
2023-04-02T21:03:41.336Z,70.00
2023-04-02T21:07:23.636Z,70.10
2023-04-02T21:11:06.746Z,70.20
2023-04-02T21:14:48.752Z,70.30
2023-04-02T21:18:30.940Z,70.40
2023-04-02T21:22:12.820Z,70.40
2023-04-02T21:25:59.712Z,70.50
2023-04-02T21:29:41.617Z,70.60
2023-04-02T21:33:23.727Z,70.80
2023-04-02T21:37:05.838Z,71.00
2023-04-02T21:40:47.786Z,71.10
2023-04-02T21:44:29.849Z,71.20
2023-04-02T21:48:11.734Z,71.30
2023-04-02T21:51:53.704Z,71.40
2023-04-02T21:55:35.761Z,71.50
2023-04-02T21:59:18.647Z,71.50
2023-04-02T22:03:00.938Z,71.70
2023-04-02T22:06:43.575Z,71.90
2023-04-02T22:10:26.441Z,71.90
2023-04-02T22:14:08.350Z,72.00
2023-04-02T22:17:50.451Z,72.00
2023-04-02T22:21:32.745Z,72.10
2023-04-02T22:25:15.190Z,72.20
2023-04-02T22:28:57.205Z,72.30
2023-04-02T22:32:40.376Z,72.30
2023-04-02T22:36:23.397Z,72.40
2023-04-02T22:40:05.852Z,72.50
2023-04-02T22:43:48.163Z,72.60
2023-04-02T22:47:30.097Z,72.80
2023-04-02T22:51:14.666Z,72.90
2023-04-02T22:54:56.605Z,72.90
2023-04-02T22:58:39.005Z,73.00
2023-04-02T23:02:20.943Z,73.20
2023-04-02T23:06:06.153Z,73.30
2023-04-02T23:09:48.090Z,73.30
2023-04-02T23:13:30.238Z,73.40
2023-04-02T23:17:12.256Z,73.50
2023-04-02T23:20:55.128Z,73.50
2023-04-02T23:24:37.461Z,73.50
2023-04-02T23:28:19.352Z,73.60
2023-04-02T23:32:01.640Z,73.70
2023-04-02T23:35:43.627Z,73.80
2023-04-02T23:39:25.653Z,73.80
2023-04-02T23:43:07.553Z,73.90
2023-04-02T23:46:49.488Z,74.00
2023-04-02T23:50:31.594Z,74.10
2023-04-02T23:54:14.525Z,74.20
2023-04-02T23:57:56.431Z,74.30
